Time;durP1;ratioP1;P1;durP2;ratioP2;P2;SDS_P1;SDS_P2;PMS_P1;PMS_P2;Temp;Humidity;BMP_temperature;BMP_pressure;BME280_temperature;BME280_humidity;BME280_pressure;Samples;Min_cycle;Max_cycle;Signal;HPM_P1;HPM_P2
2022/02/20 00:01:45;;;;;;;29.23;10.38;;;;;;;19.60;50.25;100727.06;5005536;28;20044;-47
2022/02/20 00:04:11;;;;;;;27.00;10.23;;;;;;;19.59;50.37;100730.69;5007070;28;20030;-51
2022/02/20 00:06:37;;;;;;;27.58;10.32;;;;;;;19.58;50.22;100727.25;5005050;28;20030;-50
2022/02/20 00:09:03;;;;;;;24.50;8.95;;;;;;;19.58;50.41;100719.31;5005293;28;20084;-52
2022/02/20 00:11:29;;;;;;;26.20;9.63;;;;;;;19.57;50.32;100716.88;4994557;28;20037;-48
2022/02/20 00:13:54;;;;;;;23.50;8.40;;;;;;;19.57;50.23;100712.41;5007265;28;20018;-47
2022/02/20 00:16:20;;;;;;;21.45;9.23;;;;;;;19.54;50.18;100703.03;5004081;28;20144;-50
2022/02/20 00:18:46;;;;;;;24.75;8.30;;;;;;;19.55;50.59;100706.50;5006215;28;20108;-47
2022/02/20 00:21:11;;;;;;;21.10;9.63;;;;;;;19.54;50.49;100712.78;5005654;28;20037;-48
2022/02/20 00:23:37;;;;;;;19.70;8.60;;;;;;;19.53;50.74;100711.97;5005045;28;20465;-43
2022/02/20 00:26:03;;;;;;;24.73;8.52;;;;;;;19.53;50.61;100709.34;5005023;28;20041;-48
2022/02/20 00:28:28;;;;;;;18.83;7.53;;;;;;;19.52;50.51;100712.16;5006931;28;20030;-51
2022/02/20 00:30:54;;;;;;;18.48;7.63;;;;;;;19.50;50.78;100712.34;5003883;28;20072;-50
2022/02/20 00:33:20;;;;;;;17.10;7.10;;;;;;;19.50;50.72;100711.53;5006125;28;20042;-44
2022/02/20 00:35:45;;;;;;;23.40;8.13;;;;;;;19.49;50.58;100710.72;5005735;28;20042;-52
2022/02/20 00:38:11;;;;;;;20.58;7.03;;;;;;;19.48;50.77;100709.06;5005344;28;20034;-52
2022/02/20 00:40:37;;;;;;;21.00;7.18;;;;;;;19.48;50.85;100703.78;5006106;28;20361;-55
2022/02/20 00:43:03;;;;;;;18.63;7.65;;;;;;;19.47;50.73;100707.44;5005957;28;20034;-47
2022/02/20 00:45:30;;;;;;;23.33;8.20;;;;;;;19.46;50.52;100705.00;5006511;28;20029;-55
2022/02/20 00:47:56;;;;;;;17.90;6.75;;;;;;;19.46;50.31;100703.16;5004303;28;20044;-49
2022/02/20 00:50:23;;;;;;;18.38;7.80;;;;;;;19.45;50.11;100704.19;5006461;28;20076;-50
2022/02/20 00:52:48;;;;;;;18.90;7.15;;;;;;;19.44;50.20;100713.13;5004186;28;20125;-53
2022/02/20 00:55:14;;;;;;;17.92;7.75;;;;;;;19.45;50.26;100713.94;5005541;28;20045;-48
2022/02/20 00:57:40;;;;;;;14.60;5.65;;;;;;;19.44;50.01;100717.59;4989091;28;20028;-44
2022/02/20 01:00:08;;;;;;;20.05;7.72;;;;;;;19.44;49.95;100713.13;5005038;28;20034;-49
2022/02/20 01:02:34;;;;;;;19.60;7.28;;;;;;;19.42;50.05;100709.84;5006845;28;20026;-42
2022/02/20 01:04:59;;;;;;;17.17;6.82;;;;;;;19.43;50.23;100715.97;5010117;28;20037;-47
2022/02/20 01:07:25;;;;;;;17.70;6.55;;;;;;;19.42;50.06;100719.59;5008922;28;20109;-51
2022/02/20 01:09:50;;;;;;;16.35;6.68;;;;;;;19.42;50.11;100727.53;5009208;28;20367;-51
2022/02/20 01:12:17;;;;;;;16.73;6.45;;;;;;;19.41;50.19;100721.44;5007982;28;20072;-46
2022/02/20 01:14:44;;;;;;;13.23;5.78;;;;;;;19.41;50.46;100718.78;5010533;28;20555;-47
2022/02/20 01:17:10;;;;;;;13.05;5.30;;;;;;;19.38;50.50;100711.25;5007514;28;20048;-52
2022/02/20 01:19:36;;;;;;;14.75;5.05;;;;;;;19.38;50.53;100705.97;5009989;28;20038;-44
2022/02/20 01:22:03;;;;;;;13.07;4.93;;;;;;;19.39;50.49;100707.59;5006305;28;20026;-50
2022/02/20 01:24:28;;;;;;;16.95;6.05;;;;;;;19.37;50.62;100707.00;5007205;28;20034;-49
2022/02/20 01:26:53;;;;;;;11.85;4.68;;;;;;;19.35;50.58;100698.47;5010007;28;20036;-49
2022/02/20 01:29:19;;;;;;;13.52;5.15;;;;;;;19.35;50.41;100698.47;5009270;28;20030;-49
2022/02/20 01:31:44;;;;;;;13.23;4.82;;;;;;;19.34;50.50;100686.28;4990879;28;20034;-47
2022/02/20 01:34:10;;;;;;;12.48;4.85;;;;;;;19.33;50.59;100684.63;5008847;28;20033;-42
2022/02/20 01:36:35;;;;;;;11.18;4.40;;;;;;;19.32;50.66;100683.00;5008146;28;20026;-42
2022/02/20 01:39:02;;;;;;;11.23;4.15;;;;;;;19.32;50.59;100688.28;5008828;28;20037;-46
2022/02/20 01:41:28;;;;;;;13.35;4.40;;;;;;;19.32;50.68;100682.19;5008775;28;20116;-47
2022/02/20 01:43:53;;;;;;;11.73;4.47;;;;;;;19.31;50.59;100686.66;5009318;28;20117;-46
2022/02/20 01:46:19;;;;;;;10.68;4.68;;;;;;;19.31;50.44;100677.91;5010077;28;20037;-45
2022/02/20 01:48:45;;;;;;;9.18;4.13;;;;;;;19.31;50.60;100675.28;5007492;28;20513;-50
2022/02/20 01:51:10;;;;;;;9.18;3.75;;;;;;;19.29;50.44;100672.84;5009466;28;20044;-45
2022/02/20 01:53:36;;;;;;;11.38;4.50;;;;;;;19.29;50.37;100669.38;5005254;28;20026;-50
2022/02/20 01:56:02;;;;;;;11.50;4.47;;;;;;;19.29;50.33;100666.72;4991927;28;20429;-51
2022/02/20 01:58:28;;;;;;;8.15;3.60;;;;;;;19.28;50.09;100659.81;5008551;28;20037;-44
2022/02/20 02:00:54;;;;;;;9.70;3.50;;;;;;;19.27;50.19;100664.28;5008964;28;20412;-46
2022/02/20 02:03:20;;;;;;;9.50;3.75;;;;;;;19.27;49.98;100661.66;5006464;28;20493;-49
2022/02/20 02:05:46;;;;;;;7.80;4.03;;;;;;;19.29;50.09;100666.72;4975153;28;20105;-47
2022/02/20 02:08:12;;;;;;;8.32;3.60;;;;;;;19.29;50.03;100658.81;5006702;28;20125;-53
2022/02/20 02:13:13;;;;;;;9.80;3.95;;;;;;;19.28;50.02;100652.72;4834327;23;20070;-42
2022/02/20 02:15:50;;;;;;;8.35;3.17;;;;;;;19.26;49.64;100654.72;4989167;28;20449;-50
2022/02/20 02:18:16;;;;;;;8.73;3.65;;;;;;;19.27;50.02;100656.38;4989579;28;20034;-47
2022/02/20 02:20:41;;;;;;;9.93;3.90;;;;;;;19.28;49.86;100644.78;4989413;28;20040;-47
2022/02/20 02:23:07;;;;;;;9.40;3.83;;;;;;;19.27;49.80;100643.16;4989178;28;20023;-50
2022/02/20 02:25:33;;;;;;;9.75;3.42;;;;;;;19.28;49.77;100643.97;4988026;28;20030;-49
2022/02/20 02:27:59;;;;;;;8.15;3.45;;;;;;;19.27;49.78;100635.22;4989401;28;20077;-48
2022/02/20 02:30:24;;;;;;;8.32;3.28;;;;;;;19.27;49.93;100647.63;4989322;28;20030;-48
2022/02/20 02:32:50;;;;;;;10.40;3.35;;;;;;;19.26;49.89;100640.72;4989371;28;20026;-49
2022/02/20 02:35:15;;;;;;;5.63;2.70;;;;;;;19.23;50.05;100631.34;4989358;28;20392;-48
2022/02/20 02:37:41;;;;;;;6.63;2.38;;;;;;;19.22;50.21;100621.78;4989265;28;20113;-49
2022/02/20 02:40:07;;;;;;;6.32;2.70;;;;;;;19.23;50.33;100620.78;4989078;28;20473;-45
2022/02/20 02:42:33;;;;;;;8.02;2.63;;;;;;;19.22;50.10;100627.09;4988980;28;20220;-52
2022/02/20 02:44:58;;;;;;;6.97;3.22;;;;;;;19.20;50.33;100626.47;4989098;28;20252;-48
2022/02/20 02:47:24;;;;;;;6.18;2.22;;;;;;;19.20;50.42;100626.47;4989129;28;20252;-44
2022/02/20 02:49:49;;;;;;;7.03;2.22;;;;;;;19.19;50.34;100627.47;4988779;28;20034;-52
2022/02/20 02:52:15;;;;;;;4.88;1.98;;;;;;;19.19;50.45;100635.41;4989074;28;20109;-52
2022/02/20 02:54:40;;;;;;;6.65;2.50;;;;;;;19.18;50.38;100642.50;4988830;28;20506;-44
2022/02/20 02:57:06;;;;;;;5.68;2.35;;;;;;;19.18;50.21;100639.03;4988880;28;20030;-45
2022/02/20 02:59:31;;;;;;;4.63;1.98;;;;;;;19.16;50.28;100636.59;4988976;28;20433;-50
2022/02/20 03:02:02;;;;;;;6.85;2.63;;;;;;;19.16;50.28;100638.44;4988643;28;20474;-42
2022/02/20 03:04:28;;;;;;;5.78;2.05;;;;;;;19.15;50.18;100642.91;4987245;28;20038;-45
2022/02/20 03:06:54;;;;;;;6.72;2.03;;;;;;;19.14;50.04;100638.63;4987230;28;20037;-52
2022/02/20 03:09:19;;;;;;;6.72;2.38;;;;;;;19.14;49.98;100643.91;4988653;28;20045;-44
2022/02/20 03:11:45;;;;;;;6.10;2.63;;;;;;;19.14;50.01;100645.72;4992223;28;20046;-46
2022/02/20 03:14:12;;;;;;;8.35;3.08;;;;;;;19.13;49.93;100647.56;5007157;28;20065;-52
2022/02/20 03:16:37;;;;;;;5.75;2.40;;;;;;;19.13;49.77;100652.84;5007846;28;20064;-40
2022/02/20 03:19:03;;;;;;;4.70;1.70;;;;;;;19.13;49.80;100647.56;4990286;28;20112;-47
2022/02/20 03:21:28;;;;;;;4.70;1.85;;;;;;;19.13;49.87;100646.75;5007810;28;20056;-49
2022/02/20 03:23:54;;;;;;;4.82;1.98;;;;;;;19.12;49.74;100655.66;5008051;28;20065;-48
2022/02/20 03:26:20;;;;;;;4.32;1.83;;;;;;;19.12;49.72;100663.59;5007510;28;20037;-48
2022/02/20 03:28:45;;;;;;;3.88;1.75;;;;;;;19.13;49.95;100659.94;5007882;28;20077;-53
2022/02/20 03:31:11;;;;;;;3.60;1.30;;;;;;;19.12;49.83;100660.94;5007485;28;20453;-47
2022/02/20 03:33:37;;;;;;;6.45;1.40;;;;;;;19.11;49.91;100667.25;5007829;28;20084;-41
2022/02/20 03:36:03;;;;;;;3.70;1.70;;;;;;;19.10;49.90;100657.69;5007582;28;20025;-46
2022/02/20 03:38:29;;;;;;;3.63;1.60;;;;;;;19.08;50.05;100655.25;5007506;28;20270;-46
2022/02/20 03:40:54;;;;;;;4.88;1.33;;;;;;;19.09;50.02;100663.97;5007408;28;20182;-42
2022/02/20 03:43:20;;;;;;;3.70;1.23;;;;;;;19.08;50.11;100667.63;5007750;28;20076;-42
2022/02/20 03:45:45;;;;;;;4.38;1.55;;;;;;;19.06;50.13;100672.28;5007594;28;20026;-49
2022/02/20 03:48:11;;;;;;;3.83;1.40;;;;;;;19.05;50.13;100666.19;4989607;28;20033;-51
2022/02/20 03:50:36;;;;;;;3.38;1.45;;;;;;;19.05;50.10;100668.84;5007349;28;20034;-44
2022/02/20 03:53:02;;;;;;;3.78;1.13;;;;;;;19.06;50.18;100659.09;5007097;28;20038;-52
2022/02/20 03:55:28;;;;;;;3.85;1.85;;;;;;;19.03;50.08;100673.50;5007103;28;20036;-47
2022/02/20 03:57:53;;;;;;;3.58;1.50;;;;;;;19.03;50.05;100667.41;5007384;28;20459;-56
2022/02/20 04:00:23;;;;;;;4.80;0.88;;;;;;;19.01;50.32;100659.66;5007175;28;20030;-44
2022/02/20 04:02:48;;;;;;;7.13;1.90;;;;;;;19.01;50.86;100675.50;5002438;28;20559;-48
2022/02/20 04:05:15;;;;;;;4.55;1.33;;;;;;;19.00;50.75;100665.16;4985850;28;20042;-44
2022/02/20 04:07:42;;;;;;;4.95;1.00;;;;;;;19.01;50.79;100667.59;4985370;28;20034;-48
2022/02/20 04:10:10;;;;;;;4.57;0.82;;;;;;;18.99;50.56;100664.31;4950842;28;20540;-48
2022/02/20 04:12:36;;;;;;;6.45;1.20;;;;;;;18.98;50.62;100665.34;4974337;28;20073;-49
2022/02/20 04:15:02;;;;;;;4.25;1.10;;;;;;;18.97;50.47;100669.00;4987406;28;20044;-43
2022/02/20 04:17:28;;;;;;;5.28;1.13;;;;;;;18.99;50.29;100666.16;4986018;28;20120;-44
2022/02/20 04:19:54;;;;;;;5.35;1.33;;;;;;;19.00;50.05;100665.16;4968032;28;20057;-42
2022/02/20 04:22:21;;;;;;;3.03;0.95;;;;;;;18.99;50.13;100668.78;4981791;28;20213;-46
2022/02/20 04:24:47;;;;;;;2.90;1.00;;;;;;;19.00;49.96;100659.88;4986106;28;20034;-41
2022/02/20 04:27:12;;;;;;;4.63;0.93;;;;;;;19.00;50.03;100665.16;4986633;28;20153;-46
2022/02/20 04:29:38;;;;;;;5.05;1.00;;;;;;;19.01;49.84;100661.50;4987391;28;20113;-44
2022/02/20 04:32:05;;;;;;;2.42;1.08;;;;;;;19.01;49.88;100661.50;4986057;28;20034;-45
2022/02/20 04:34:30;;;;;;;5.55;1.60;;;;;;;19.01;49.90;100659.66;4986497;28;20031;-43
2022/02/20 04:36:56;;;;;;;2.15;0.90;;;;;;;19.01;49.89;100658.84;4987815;28;20041;-41
2022/02/20 04:39:22;;;;;;;3.25;1.15;;;;;;;19.01;49.98;100659.66;4990568;28;20038;-45
2022/02/20 04:41:48;;;;;;;3.13;1.10;;;;;;;19.02;49.83;100652.56;4990366;28;20105;-47
2022/02/20 04:44:14;;;;;;;4.75;1.27;;;;;;;19.01;50.03;100653.56;4991533;28;20052;-47
2022/02/20 04:46:40;;;;;;;2.05;1.00;;;;;;;19.01;49.77;100648.28;4973092;28;20059;-47
2022/02/20 04:49:07;;;;;;;2.58;1.10;;;;;;;19.00;49.83;100644.84;4990114;28;20034;-42
2022/02/20 04:51:34;;;;;;;1.92;0.85;;;;;;;18.99;49.76;100634.47;4990217;28;20095;-43
2022/02/20 04:54:02;;;;;;;3.28;1.10;;;;;;;18.99;49.93;100637.13;4989292;28;20033;-44
2022/02/20 04:56:28;;;;;;;2.88;0.80;;;;;;;18.97;49.95;100644.41;4990980;28;20031;-42
2022/02/20 04:58:54;;;;;;;1.80;0.68;;;;;;;18.97;49.84;100647.06;4988022;28;20034;-53
2022/02/20 05:01:20;;;;;;;4.35;0.93;;;;;;;18.95;50.02;100657.81;4989906;28;20057;-43
2022/02/20 05:03:46;;;;;;;2.10;0.88;;;;;;;18.94;49.90;100652.72;4990361;28;20034;-46
2022/02/20 05:06:13;;;;;;;3.22;0.82;;;;;;;18.93;49.89;100649.25;4990712;28;20074;-48
2022/02/20 05:08:39;;;;;;;1.80;0.70;;;;;;;18.93;49.95;100656.38;4989912;28;20323;-50
2022/02/20 05:11:04;;;;;;;1.60;0.57;;;;;;;18.92;50.02;100660.84;4991003;28;20312;-53
2022/02/20 05:13:30;;;;;;;2.38;0.55;;;;;;;18.92;49.96;100665.28;4989173;28;20049;-41
2022/02/20 05:15:55;;;;;;;4.43;0.70;;;;;;;18.89;49.90;100672.63;4989922;28;20088;-47
2022/02/20 05:18:20;;;;;;;3.28;0.60;;;;;;;18.89;49.98;100677.09;4989626;28;20030;-49
2022/02/20 05:20:47;;;;;;;3.55;0.55;;;;;;;18.89;49.74;100679.72;4989314;28;20038;-47
2022/02/20 05:23:12;;;;;;;2.95;0.60;;;;;;;18.88;49.92;100686.03;4990849;28;20026;-49
2022/02/20 05:25:38;;;;;;;2.30;0.57;;;;;;;18.87;49.86;100690.47;4989688;28;20113;-54
2022/02/20 05:28:04;;;;;;;1.80;0.50;;;;;;;18.86;49.91;100694.13;4989649;28;20065;-50
2022/02/20 05:30:30;;;;;;;1.63;0.60;;;;;;;18.86;49.78;100702.03;4989305;28;20077;-46
2022/02/20 05:32:55;;;;;;;3.35;0.90;;;;;;;18.85;49.53;100697.78;4988825;28;20030;-52
2022/02/20 05:35:21;;;;;;;1.60;0.50;;;;;;;18.86;49.53;100701.22;4990457;28;20038;-46
2022/02/20 05:37:49;;;;;;;1.92;0.57;;;;;;;18.86;49.47;100709.97;4988742;28;20061;-45
2022/02/20 05:40:19;;;;;;;1.50;0.68;;;;;;;18.84;49.47;100711.97;4990289;28;20421;-43
2022/02/20 05:42:45;;;;;;;3.38;0.88;;;;;;;18.84;49.42;100717.25;4988635;28;20042;-47
2022/02/20 05:45:11;;;;;;;3.42;0.65;;;;;;;18.85;49.39;100718.06;4989030;28;20426;-49
2022/02/20 05:47:37;;;;;;;2.40;0.40;;;;;;;18.85;49.41;100720.72;4988873;28;20045;-52
2022/02/20 05:50:06;;;;;;;1.90;0.50;;;;;;;18.84;49.31;100709.34;4989870;28;20564;-43
2022/02/20 05:52:32;;;;;;;1.98;0.60;;;;;;;18.84;49.34;100706.69;4989153;28;20040;-54
2022/02/20 05:54:57;;;;;;;1.60;0.47;;;;;;;18.84;49.55;100711.97;4990393;28;20026;-51
2022/02/20 05:57:23;;;;;;;1.80;0.50;;;;;;;18.83;49.45;100702.44;4988639;28;20223;-48
2022/02/20 05:59:49;;;;;;;2.47;0.45;;;;;;;18.83;49.63;100699.78;4987324;28;20393;-47
2022/02/20 06:02:15;;;;;;;2.28;0.40;;;;;;;18.84;49.47;100700.59;4988710;28;20435;-43
2022/02/20 06:04:40;;;;;;;1.98;0.70;;;;;;;18.81;49.66;100701.81;4990096;28;20397;-49
2022/02/20 06:07:06;;;;;;;1.23;0.40;;;;;;;18.80;49.64;100696.72;4988914;28;20089;-53
2022/02/20 06:09:31;;;;;;;0.80;0.30;;;;;;;18.79;49.74;100709.09;4988743;28;20041;-50
2022/02/20 06:11:57;;;;;;;1.25;0.47;;;;;;;18.79;49.76;100709.09;4988595;28;20587;-43
2022/02/20 06:14:23;;;;;;;2.15;0.57;;;;;;;18.77;49.70;100713.75;4987768;28;20065;-46
2022/02/20 06:16:48;;;;;;;1.80;0.35;;;;;;;18.76;49.66;100714.75;4988709;28;20034;-49
2022/02/20 06:19:14;;;;;;;1.20;0.40;;;;;;;18.76;49.60;100724.50;4988350;28;20610;-51
2022/02/20 06:21:40;;;;;;;0.82;0.30;;;;;;;18.76;49.99;100727.16;4987596;28;20040;-42
2022/02/20 06:24:06;;;;;;;1.70;0.30;;;;;;;18.74;49.84;100732.59;4989000;28;20038;-46
2022/02/20 06:26:31;;;;;;;1.73;0.30;;;;;;;18.74;49.66;100731.78;4988975;28;20042;-47
2022/02/20 06:28:57;;;;;;;1.50;0.38;;;;;;;18.74;49.78;100729.16;4989678;28;20418;-46
2022/02/20 06:31:22;;;;;;;1.20;0.40;;;;;;;18.73;49.85;100730.97;4987461;28;20026;-52
2022/02/20 06:33:51;;;;;;;2.25;0.35;;;;;;;18.72;49.69;100734.63;4988725;28;20038;-45
2022/02/20 06:36:17;;;;;;;2.47;0.32;;;;;;;18.73;49.54;100738.91;4971628;28;20030;-47
2022/02/20 06:38:42;;;;;;;5.18;0.40;;;;;;;18.72;49.39;100736.44;4988211;28;20489;-46
2022/02/20 06:41:10;;;;;;;2.95;0.43;;;;;;;18.73;49.53;100746.81;4988623;28;20121;-50
2022/02/20 06:43:36;;;;;;;2.20;0.35;;;;;;;18.73;49.35;100753.91;4989333;28;20536;-51
2022/02/20 06:46:01;;;;;;;1.30;0.38;;;;;;;18.73;49.41;100759.19;4986225;28;20408;-41
2022/02/20 06:48:27;;;;;;;1.42;0.30;;;;;;;18.74;49.40;100763.47;4983074;28;20030;-45
2022/02/20 06:50:52;;;;;;;1.20;0.40;;;;;;;18.74;49.29;100769.56;4989348;28;20113;-44
2022/02/20 06:53:18;;;;;;;2.25;0.50;;;;;;;18.74;49.18;100774.84;4987536;28;20549;-46
2022/02/20 06:55:43;;;;;;;1.70;0.30;;;;;;;18.74;49.23;100774.84;4986712;28;20096;-48
2022/02/20 06:58:09;;;;;;;2.35;0.40;;;;;;;18.73;49.26;100778.47;4989776;23;20704;-54
2022/02/20 07:00:34;;;;;;;2.10;0.30;;;;;;;18.75;49.31;100781.75;4965832;28;20045;-47
2022/02/20 07:03:00;;;;;;;1.15;0.30;;;;;;;18.74;49.13;100780.13;4967261;28;20398;-50
2022/02/20 07:05:25;;;;;;;3.05;0.43;;;;;;;18.76;49.77;100788.66;4966340;28;20057;-44
2022/02/20 07:07:51;;;;;;;3.03;0.30;;;;;;;18.79;50.59;100783.00;4968653;28;20613;-46
2022/02/20 07:10:16;;;;;;;4.10;0.40;;;;;;;18.84;51.31;100790.34;4968914;28;20060;-44
2022/02/20 07:12:42;;;;;;;2.15;0.43;;;;;;;18.86;52.25;100789.16;4965534;28;20097;-45
2022/02/20 07:15:08;;;;;;;1.52;0.47;;;;;;;18.90;53.29;100787.75;4967375;28;20033;-42
2022/02/20 07:17:33;;;;;;;2.03;0.40;;;;;;;18.89;53.07;100788.78;4967851;28;20046;-45
2022/02/20 07:20:03;;;;;;;1.20;0.30;;;;;;;18.86;52.86;100786.53;4967236;28;20030;-48
2022/02/20 07:22:30;;;;;;;1.13;0.30;;;;;;;18.88;52.61;100789.78;4951333;28;20054;-43
2022/02/20 07:24:55;;;;;;;3.47;0.57;;;;;;;18.91;52.61;100788.56;4969161;28;20031;-47
2022/02/20 07:27:20;;;;;;;2.00;0.40;;;;;;;18.94;52.80;100795.28;4969035;28;20081;-50
2022/02/20 07:29:46;;;;;;;2.33;0.63;;;;;;;18.94;52.87;100792.66;4968796;28;20023;-48
2022/02/20 07:32:11;;;;;;;4.22;0.30;;;;;;;18.98;53.10;100793.91;4967682;28;20485;-46
2022/02/20 07:34:37;;;;;;;2.10;0.50;;;;;;;18.98;53.04;100789.44;4966362;28;20035;-53
2022/02/20 07:37:02;;;;;;;3.30;0.47;;;;;;;19.01;53.20;100802.25;4966944;28;20110;-45
2022/02/20 07:39:28;;;;;;;5.00;0.30;;;;;;;19.03;53.19;100804.72;4966716;28;20526;-42
2022/02/20 07:41:56;;;;;;;2.53;0.40;;;;;;;19.07;53.50;100800.69;4965634;28;20356;-45
2022/02/20 07:44:22;;;;;;;2.08;0.55;;;;;;;19.11;53.76;100804.56;4965632;28;20746;-50
2022/02/20 07:46:48;;;;;;;2.90;0.40;;;;;;;19.14;53.82;100796.25;4968104;28;20038;-47
2022/02/20 07:49:14;;;;;;;0.65;0.22;;;;;;;19.19;54.03;100807.06;4964843;28;20031;-44
2022/02/20 07:51:39;;;;;;;2.35;0.50;;;;;;;19.21;54.10;100805.88;4966753;28;20399;-45
2022/02/20 07:54:05;;;;;;;2.55;0.40;;;;;;;19.25;54.14;100808.94;4967205;28;20031;-46
2022/02/20 07:56:30;;;;;;;1.67;0.40;;;;;;;19.29;53.81;100804.09;4965891;28;20034;-53
2022/02/20 07:58:56;;;;;;;2.50;0.30;;;;;;;19.32;53.81;100806.34;4963581;28;20133;-52
2022/02/20 08:01:21;;;;;;;3.38;0.32;;;;;;;19.36;53.80;100808.41;4966908;28;20512;-55
2022/02/20 08:03:49;;;;;;;4.07;0.30;;;;;;;19.42;53.50;100809.44;4968463;28;20130;-43
2022/02/20 08:06:14;;;;;;;3.05;0.30;;;;;;;19.42;52.96;100809.44;4966472;28;20603;-52
2022/02/20 08:08:40;;;;;;;3.10;0.47;;;;;;;19.44;52.41;100812.72;4962845;28;20042;-50
2022/02/20 08:11:06;;;;;;;6.93;0.60;;;;;;;19.44;52.35;100808.25;4968458;28;20042;-55
2022/02/20 08:13:31;;;;;;;1.50;0.52;;;;;;;19.49;52.17;100823.53;4948268;28;20033;-46
2022/02/20 08:15:58;;;;;;;3.85;0.30;;;;;;;19.51;52.00;100819.69;4967022;28;20741;-44
2022/02/20 08:18:24;;;;;;;1.50;0.30;;;;;;;19.54;51.88;100821.16;4965966;28;20031;-47
2022/02/20 08:20:49;;;;;;;2.80;0.52;;;;;;;19.54;51.67;100818.50;4968454;28;20030;-48
2022/02/20 08:23:17;;;;;;;3.90;0.40;;;;;;;19.53;51.71;100830.91;4967677;28;21665;-44
2022/02/20 08:25:46;;;;;;;6.50;0.30;;;;;;;19.54;51.46;100832.53;4950779;28;20019;-48
2022/02/20 08:28:11;;;;;;;5.05;0.47;;;;;;;19.55;51.56;100822.78;4949259;28;20224;-48
2022/02/20 08:30:37;;;;;;;2.58;0.40;;;;;;;19.58;52.35;100825.03;4965881;28;20145;-46
2022/02/20 08:33:04;;;;;;;2.65;0.40;;;;;;;19.64;52.41;100831.38;4967643;28;20086;-46
2022/02/20 08:35:30;;;;;;;2.75;0.40;;;;;;;19.63;51.88;100832.38;4956571;28;20027;-47
2022/02/20 08:37:55;;;;;;;3.22;0.35;;;;;;;19.64;51.48;100821.63;4966253;28;20553;-42
2022/02/20 08:40:21;;;;;;;2.85;0.40;;;;;;;19.68;51.07;100825.50;4966686;28;20030;-53
2022/02/20 08:42:48;;;;;;;6.95;0.30;;;;;;;19.75;50.77;100831.66;4966198;28;20034;-48
2022/02/20 08:45:16;;;;;;;3.33;0.50;;;;;;;19.81;50.60;100835.34;4965329;28;20086;-47
2022/02/20 08:47:42;;;;;;;0.90;0.55;;;;;;;19.86;50.68;100838.19;4966324;28;20163;-44
2022/02/20 08:50:10;;;;;;;1.60;0.50;;;;;;;19.89;50.79;100838.59;4966875;28;20155;-51
2022/02/20 08:52:36;;;;;;;1.38;0.30;;;;;;;19.94;50.68;100843.31;4968207;28;20063;-52
2022/02/20 08:55:04;;;;;;;1.48;0.30;;;;;;;19.98;50.80;100846.38;4968259;28;20426;-49
2022/02/20 08:57:29;;;;;;;1.90;0.20;;;;;;;20.00;50.94;100849.63;4967093;28;20057;-45
2022/02/20 08:59:56;;;;;;;1.40;0.35;;;;;;;20.05;50.92;100847.22;4949525;28;20494;-56
2022/02/20 09:02:22;;;;;;;2.80;0.50;;;;;;;20.08;50.85;100847.66;4967290;28;20061;-44
2022/02/20 09:04:47;;;;;;;2.60;0.30;;;;;;;20.10;50.89;100845.63;4949767;28;20117;-47
2022/02/20 09:07:13;;;;;;;2.58;0.28;;;;;;;20.14;50.65;100853.97;4967248;28;20031;-44
2022/02/20 09:09:39;;;;;;;3.05;0.50;;;;;;;20.14;50.67;100849.50;4967399;28;20459;-44
2022/02/20 09:12:05;;;;;;;3.60;0.30;;;;;;;20.17;50.49;100853.59;4967454;28;20030;-48
2022/02/20 09:14:31;;;;;;;1.40;0.38;;;;;;;20.18;50.35;100866.63;4967385;28;20035;-44
2022/02/20 09:16:57;;;;;;;3.70;0.30;;;;;;;20.21;50.37;100863.59;4967395;28;20130;-44
2022/02/20 09:19:22;;;;;;;1.50;0.20;;;;;;;20.21;50.13;100868.06;4967581;28;20039;-46
2022/02/20 09:21:48;;;;;;;2.15;0.30;;;;;;;20.24;50.33;100864.19;4967753;28;20227;-50
2022/02/20 09:24:13;;;;;;;2.22;0.20;;;;;;;20.21;50.15;100853.00;4970372;28;20470;-55
2022/02/20 09:26:39;;;;;;;1.02;0.20;;;;;;;20.23;50.15;100860.75;4970826;28;20444;-40
2022/02/20 09:29:04;;;;;;;1.10;0.20;;;;;;;20.23;50.08;100865.22;4970656;28;20041;-44
2022/02/20 09:31:30;;;;;;;1.23;0.30;;;;;;;20.22;50.11;100856.47;4970797;28;20069;-47
2022/02/20 09:33:56;;;;;;;0.70;0.20;;;;;;;20.21;50.04;100858.28;4971017;28;20031;-46
2022/02/20 09:36:21;;;;;;;0.93;0.20;;;;;;;20.20;50.17;100856.66;4970827;28;20030;-47
2022/02/20 09:38:47;;;;;;;1.20;0.20;;;;;;;20.21;49.91;100853.00;4970774;28;20553;-49
2022/02/20 09:41:13;;;;;;;1.98;0.30;;;;;;;20.20;50.02;100861.94;4970341;28;20050;-55
2022/02/20 09:43:39;;;;;;;0.73;0.20;;;;;;;20.21;50.04;100860.13;4971035;28;20058;-52
2022/02/20 09:46:06;;;;;;;0.80;0.20;;;;;;;20.20;50.13;100867.25;4970769;28;20488;-51
2022/02/20 09:48:33;;;;;;;0.43;0.20;;;;;;;20.20;50.13;100856.66;4970633;28;20031;-47
2022/02/20 09:51:01;;;;;;;3.42;0.30;;;;;;;20.20;50.11;100861.13;4970642;28;20151;-50
2022/02/20 09:53:28;;;;;;;0.60;0.20;;;;;;;20.19;49.79;100862.97;4971049;28;20069;-47
2022/02/20 09:55:54;;;;;;;2.35;0.20;;;;;;;20.18;49.91;100853.41;4970495;28;20048;-51
2022/02/20 09:58:20;;;;;;;0.98;0.20;;;;;;;20.18;49.91;100856.03;4970350;28;20057;-55
2022/02/20 10:00:54;;;;;;;1.42;0.10;;;;;;;20.16;49.64;100852.78;4970448;28;20030;-45
2022/02/20 10:03:31;;;;;;;2.50;0.20;;;;;;;20.15;49.58;100856.44;4970339;28;20375;-48
2022/02/20 10:06:02;;;;;;;0.85;0.30;;;;;;;20.15;49.88;100843.22;4970384;28;20062;-44
2022/02/20 10:08:42;;;;;;;0.60;0.20;;;;;;;20.14;49.72;100852.16;4953048;28;20546;-46
2022/02/20 10:11:27;;;;;;;0.68;0.20;;;;;;;20.14;49.63;100853.97;4970175;28;20391;-48
2022/02/20 10:14:13;;;;;;;0.75;0.20;;;;;;;20.12;49.84;100846.25;4970065;28;20030;-49
2022/02/20 10:16:38;;;;;;;;;;;;;;;20.06;49.65;100847.03;4970699;28;20294;-46
2022/02/20 10:19:04;;;;;;;0.65;0.20;;;;;;;20.08;49.78;100852.13;4970379;28;20208;-47
2022/02/20 10:21:33;;;;;;;2.17;0.20;;;;;;;20.11;49.77;100847.25;4970151;28;20101;-48
2022/02/20 10:24:12;;;;;;;1.20;0.20;;;;;;;20.11;49.61;100857.84;4970120;28;20030;-45
2022/02/20 10:26:42;;;;;;;0.60;0.20;;;;;;;20.11;49.76;100868.41;4970200;28;20063;-48
2022/02/20 10:29:21;;;;;;;0.38;0.10;;;;;;;20.12;49.65;100869.22;4969819;28;20031;-51
2022/02/20 10:31:49;;;;;;;1.20;0.28;;;;;;;20.12;49.73;100862.13;4970096;28;20212;-42
2022/02/20 10:34:16;;;;;;;0.70;0.20;;;;;;;20.14;49.59;100861.91;4969096;28;20134;-44
2022/02/20 10:36:48;;;;;;;0.70;0.20;;;;;;;20.12;49.38;100858.66;4969338;28;20121;-49
2022/02/20 10:39:27;;;;;;;0.88;0.20;;;;;;;20.11;49.51;100855.19;4969693;28;20038;-49
2022/02/20 10:41:55;;;;;;;0.70;0.20;;;;;;;20.11;49.55;100857.84;4952075;28;20035;-48
2022/02/20 10:44:21;;;;;;;1.25;0.30;;;;;;;20.10;49.53;100856.22;4969358;28;20478;-50
2022/02/20 10:46:47;;;;;;;0.63;0.22;;;;;;;20.10;49.72;100856.22;4969609;28;20114;-46
2022/02/20 10:49:26;;;;;;;0.85;0.20;;;;;;;20.08;49.64;100841.53;4969655;28;20566;-49
2022/02/20 10:51:53;;;;;;;0.70;0.15;;;;;;;20.07;49.61;100842.56;4969778;28;20061;-48
2022/02/20 10:54:19;;;;;;;1.92;0.20;;;;;;;20.08;49.68;100849.47;4969793;28;20101;-50
2022/02/20 10:56:45;;;;;;;1.27;0.20;;;;;;;20.07;49.33;100838.09;4969424;28;20026;-48
2022/02/20 10:59:11;;;;;;;0.75;0.25;;;;;;;20.09;49.64;100836.06;4968890;28;20339;-51
2022/02/20 11:01:36;;;;;;;2.00;0.17;;;;;;;20.09;49.54;100833.41;4969324;28;20084;-46
2022/02/20 11:04:10;;;;;;;1.20;0.10;;;;;;;20.08;49.27;100836.25;4969433;28;20059;-45
2022/02/20 11:06:39;;;;;;;0.50;0.20;;;;;;;20.09;49.38;100827.31;4969115;28;20036;-43
2022/02/20 11:09:07;;;;;;;0.45;0.20;;;;;;;20.10;49.44;100823.66;4969150;28;20027;-45
2022/02/20 11:11:38;;;;;;;0.40;0.17;;;;;;;20.08;49.26;100821.19;4968948;28;20031;-51
2022/02/20 11:14:22;;;;;;;0.70;0.22;;;;;;;20.08;49.33;100817.75;4968901;28;20526;-52
2022/02/20 11:16:50;;;;;;;0.55;0.20;;;;;;;20.08;49.21;100810.63;4968894;28;20019;-50
2022/02/20 11:19:21;;;;;;;0.52;0.13;;;;;;;20.10;49.33;100802.50;4969002;28;20027;-53
2022/02/20 11:21:50;;;;;;;3.85;0.20;;;;;;;20.09;49.01;100796.38;4968943;28;20030;-51
2022/02/20 11:24:17;;;;;;;0.55;0.15;;;;;;;20.08;49.22;100793.94;4968953;28;20030;-47